Time;durP1;ratioP1;P1;durP2;ratioP2;P2;SDS_P1;SDS_P2;PMS_P1;PMS_P2;Temp;Humidity;BMP_temperature;BMP_pressure;BME280_temperature;BME280_humidity;BME280_pressure;Samples;Min_cycle;Max_cycle;Signal;HPM_P1;HPM_P2
2021/08/19 00:00:12;;;;;;;3.72;3.08;;;14.40;1.40;;;16.02;100.00;95451.89;645274;213;32232;-71
2021/08/19 00:02:54;;;;;;;3.95;3.10;;;14.50;1.40;;;15.86;100.00;95452.34;645089;212;42991;-71
2021/08/19 00:05:36;;;;;;;3.75;2.97;;;14.40;1.40;;;15.87;100.00;95452.69;647662;216;31923;-71
2021/08/19 00:08:20;;;;;;;3.30;3.00;;;14.40;1.40;;;15.81;100.00;95455.93;647911;212;31599;-71
2021/08/19 00:11:02;;;;;;;3.53;3.22;;;14.40;1.40;;;15.96;100.00;95452.16;618684;222;31904;-71
2021/08/19 00:13:44;;;;;;;3.87;3.47;;;14.40;1.40;;;15.85;100.00;95452.74;645818;212;31614;-71
2021/08/19 00:16:26;;;;;;;4.18;3.42;;;14.50;1.40;;;15.87;100.00;95448.26;646843;216;31545;-71
2021/08/19 00:19:08;;;;;;;3.80;3.40;;;14.50;1.40;;;15.86;100.00;95448.00;645259;216;31735;-72
2021/08/19 00:21:50;;;;;;;6.18;3.10;;;14.60;1.40;;;15.90;100.00;95444.31;647116;214;31595;-71
2021/08/19 00:24:32;;;;;;;3.53;3.22;;;14.50;1.40;;;15.88;100.00;95440.84;647080;213;31565;-72
2021/08/19 00:27:13;;;;;;;3.40;3.10;;;14.50;1.40;;;15.96;100.00;95443.09;646351;212;31571;-71
2021/08/19 00:29:55;;;;;;;3.60;3.30;;;14.60;1.40;;;15.85;100.00;95441.09;646572;212;31565;-71
2021/08/19 00:32:37;;;;;;;3.50;3.20;;;14.60;1.40;;;15.88;100.00;95439.44;618550;222;31893;-71
2021/08/19 00:35:51;;;;;;;3.72;3.30;;;14.60;1.40;;;15.95;100.00;95434.92;618604;226;31960;-71
2021/08/19 00:38:35;;;;;;;3.40;3.10;;;14.60;1.40;;;15.90;100.00;95437.66;646907;216;31643;-71
2021/08/19 00:41:17;;;;;;;4.00;3.60;;;14.60;1.40;;;15.89;100.00;95436.26;647391;212;31569;-71
2021/08/19 00:44:00;;;;;;;4.18;3.78;;;14.70;1.40;;;15.88;100.00;95431.20;646114;212;31616;-71
2021/08/19 00:46:43;;;;;;;3.80;3.30;;;14.70;1.40;;;15.96;100.00;95433.38;646806;212;31577;-70
2021/08/19 00:49:23;;;;;;;4.20;3.17;;;14.70;1.40;;;16.03;100.00;95430.04;646944;216;32659;-71
2021/08/19 00:52:05;;;;;;;4.15;3.75;;;14.70;1.40;;;16.06;100.00;95427.36;645333;212;31708;-70
2021/08/19 00:54:47;;;;;;;4.60;4.03;;;14.60;1.40;;;16.05;100.00;95422.59;647928;212;31638;-74
2021/08/19 00:57:28;;;;;;;4.43;3.42;;;14.60;1.40;;;16.03;100.00;95414.45;646995;216;31651;-71
2021/08/19 01:00:11;;;;;;;6.93;3.60;;;14.60;1.40;;;16.21;100.00;95421.91;646403;212;31848;-71
2021/08/19 01:02:54;;;;;;;4.43;3.53;;;14.60;1.40;;;16.27;100.00;95425.45;647671;216;31612;-70
2021/08/19 01:05:38;;;;;;;3.97;3.67;;;14.60;1.40;;;16.13;100.00;95424.52;646949;216;31586;-70
2021/08/19 01:08:16;;;;;;;5.67;3.90;;;14.60;1.40;;;-143.44;100.00;122422.95;647162;216;31643;-70
2021/08/19 01:10:57;;;;;;;4.62;3.97;;;14.60;1.40;;;;;;647214;216;31585;-70
2021/08/19 01:13:38;;;;;;;5.70;4.50;;;14.60;1.40;;;;;;646540;212;31592;-71
2021/08/19 01:16:19;;;;;;;4.30;3.90;;;14.60;1.40;;;;;;646454;212;31608;-71
2021/08/19 01:19:00;;;;;;;4.93;4.43;;;14.50;1.40;;;;;;646766;212;31575;-71
2021/08/19 01:21:41;;;;;;;4.73;4.23;;;14.60;1.40;;;;;;645746;216;31575;-70
2021/08/19 01:24:22;;;;;;;5.40;4.50;;;14.60;1.40;;;;;;647686;212;31581;-70
2021/08/19 01:27:03;;;;;;;4.20;3.70;;;14.60;1.40;;;;;;646258;216;31750;-71
2021/08/19 01:29:44;;;;;;;4.43;4.03;;;14.60;1.40;;;;;;619337;222;32503;-70
2021/08/19 01:32:27;;;;;;;4.20;3.80;;;14.60;1.40;;;;;;646809;216;31599;-71
2021/08/19 01:35:54;;;;;;;5.30;3.70;;;14.60;1.40;;;16.22;100.00;95424.71;646537;216;31600;-70
2021/08/19 01:38:36;;;;;;;5.00;4.37;;;14.60;1.40;;;16.25;100.00;95423.63;645998;216;31572;-71
2021/08/19 01:41:20;;;;;;;5.20;4.60;;;14.60;1.40;;;16.24;100.00;95422.11;646892;212;32316;-71
2021/08/19 01:44:02;;;;;;;5.90;4.68;;;14.60;1.40;;;-143.44;100.00;122422.95;646698;212;31644;-70
2021/08/19 01:46:43;;;;;;;5.50;4.20;;;14.60;1.40;;;;;;646849;212;32128;-71
2021/08/19 01:49:27;;;;;;;4.40;4.00;;;14.50;1.40;;;;;;645566;216;31798;-70
2021/08/19 01:52:12;;;;;;;5.27;4.60;;;14.60;1.40;;;;;;620120;226;31993;-72
2021/08/19 01:54:53;;;;;;;5.90;4.73;;;14.50;1.40;;;;;;619302;226;32597;-71
2021/08/19 02:00:09;;;;;;;4.15;3.75;;;14.50;1.40;;;;;;646650;216;31580;-71
2021/08/19 02:02:50;;;;;;;5.15;4.50;;;14.50;1.40;;;;;;640916;217;31649;-71
2021/08/19 02:05:31;;;;;;;4.70;4.17;;;14.50;1.40;;;;;;647166;212;31681;-72
2021/08/19 02:08:12;;;;;;;4.73;4.27;;;14.60;1.40;;;;;;647201;212;31579;-71
2021/08/19 02:10:53;;;;;;;5.70;4.40;;;14.60;1.40;;;;;;645973;212;31619;-71
2021/08/19 02:13:34;;;;;;;5.40;4.30;;;14.60;1.40;;;;;;647519;212;31689;-71
2021/08/19 02:16:15;;;;;;;5.93;4.57;;;14.50;1.40;;;;;;646670;212;31597;-71
2021/08/19 02:18:56;;;;;;;5.30;4.70;;;14.50;1.40;;;;;;646404;212;32064;-70
2021/08/19 02:21:42;;;;;;;6.10;5.10;;;14.60;1.40;;;;;;617179;226;31951;-70
2021/08/19 02:24:23;;;;;;;5.20;4.70;;;14.50;1.40;;;;;;646115;216;31600;-70
2021/08/19 02:27:04;;;;;;;5.00;4.50;;;14.50;1.40;;;;;;647650;216;31545;-70
2021/08/19 02:29:45;;;;;;;6.53;4.70;;;14.60;1.40;;;;;;646362;216;31676;-71
2021/08/19 02:32:29;;;;;;;4.93;4.37;;;14.50;1.40;;;;;;646060;212;31554;-71
2021/08/19 02:35:52;;;;;;;5.78;4.65;;;14.50;1.40;;;15.79;100.00;95431.85;646129;216;31684;-72
2021/08/19 02:38:36;;;;;;;6.80;4.95;;;14.50;1.40;;;15.87;100.00;95431.27;647459;212;31626;-71
2021/08/19 02:41:18;;;;;;;5.22;4.72;;;14.50;1.40;;;15.90;100.00;95425.98;637403;212;31739;-71
2021/08/19 02:44:00;;;;;;;7.20;4.95;;;14.50;1.40;;;16.00;100.00;95427.91;646783;212;31559;-70
2021/08/19 02:46:41;;;;;;;5.82;5.22;;;14.50;1.40;;;16.06;100.00;95430.19;646625;216;31549;-72
2021/08/19 02:49:26;;;;;;;6.00;5.03;;;14.50;1.40;;;16.00;100.00;95431.48;645897;216;42197;-70
2021/08/19 02:52:09;;;;;;;6.68;5.12;;;14.50;1.40;;;16.13;100.00;95428.45;619423;226;32384;-71
2021/08/19 02:54:54;;;;;;;5.72;4.80;;;14.50;1.40;;;16.10;100.00;95425.76;646626;213;31537;-71
2021/08/19 02:57:36;;;;;;;6.28;4.70;;;14.50;1.40;;;15.97;100.00;95429.45;645737;212;31567;-71
2021/08/19 03:00:18;;;;;;;5.07;4.57;;;14.50;1.40;;;16.13;100.00;95430.50;646790;212;31574;-71
2021/08/19 03:02:59;;;;;;;6.45;4.97;;;14.50;1.40;;;16.03;100.00;95431.80;646243;216;31605;-71
2021/08/19 03:05:41;;;;;;;8.25;4.78;;;14.50;1.40;;;16.00;100.00;95431.23;646425;212;31695;-71
2021/08/19 03:08:23;;;;;;;5.05;4.45;;;14.50;1.40;;;15.97;100.00;95430.44;648272;212;32078;-70
2021/08/19 03:11:04;;;;;;;5.45;4.60;;;14.40;1.40;;;15.92;100.00;95429.41;646417;216;32150;-71
2021/08/19 03:13:46;;;;;;;6.75;4.93;;;14.40;1.40;;;15.88;100.00;95430.22;646452;212;32660;-71
2021/08/19 03:16:28;;;;;;;5.30;4.50;;;14.40;1.40;;;15.98;100.00;95429.50;647083;216;32083;-72
2021/08/19 03:19:13;;;;;;;5.67;4.90;;;14.40;1.40;;;15.95;100.00;95429.80;646531;216;31833;-71
2021/08/19 03:21:54;;;;;;;5.10;4.60;;;14.40;1.40;;;15.89;100.00;95426.25;646163;212;31584;-72
2021/08/19 03:25:56;;;;;;;7.20;5.10;;;14.40;1.40;;;15.92;100.00;95426.97;646115;212;42207;-70
2021/08/19 03:28:40;;;;;;;6.35;5.15;;;14.40;1.40;;;15.96;100.00;95423.05;646345;216;31540;-71
2021/08/19 03:31:19;;;;;;;5.53;4.85;;;14.40;1.40;;;16.03;100.00;95428.07;618861;222;32101;-70
2021/08/19 03:35:51;;;;;;;7.50;5.20;;;14.40;1.40;;;15.88;100.00;95425.42;646650;216;31578;-72
2021/08/19 03:38:32;;;;;;;6.28;5.62;;;14.40;1.40;;;15.81;100.00;95424.31;646982;216;31600;-71
2021/08/19 03:41:14;;;;;;;7.18;4.90;;;14.40;1.40;;;15.68;100.00;95426.80;638775;216;31766;-71
2021/08/19 03:43:56;;;;;;;7.15;5.72;;;14.30;1.40;;;15.58;100.00;95424.00;646069;216;31611;-71
2021/08/19 03:46:41;;;;;;;7.10;4.65;;;14.30;1.40;;;15.75;100.00;95421.10;645872;216;31641;-71
2021/08/19 03:49:22;;;;;;;5.80;4.70;;;14.30;1.40;;;15.84;100.00;95427.42;647075;216;31883;-69
2021/08/19 03:52:04;;;;;;;6.35;5.57;;;14.30;1.40;;;15.78;100.00;95430.53;646939;212;31609;-70
2021/08/19 03:54:46;;;;;;;6.95;5.43;;;14.30;1.40;;;15.85;100.00;95433.99;646139;212;31562;-71
2021/08/19 03:57:28;;;;;;;5.45;4.95;;;14.30;1.40;;;15.90;100.00;95436.31;647606;212;31571;-71
2021/08/19 04:02:46;;;;;;;6.93;5.15;;;14.30;1.40;;;15.91;100.00;95437.76;642628;216;31611;-71
2021/08/19 04:05:25;;;;;;;6.87;5.40;;;14.30;1.40;;;15.91;100.00;95437.43;647273;216;31596;-70
2021/08/19 04:08:07;;;;;;;6.65;5.35;;;14.30;1.40;;;15.96;100.00;95439.86;645354;216;31869;-71
2021/08/19 04:10:52;;;;;;;6.47;5.30;;;14.40;1.40;;;15.93;100.00;95438.11;647141;216;32201;-70
2021/08/19 04:13:33;;;;;;;7.15;5.43;;;14.40;1.40;;;15.87;100.00;95438.28;646046;212;33889;-71
2021/08/19 04:16:18;;;;;;;6.75;5.70;;;14.30;1.40;;;15.89;100.00;95439.54;646790;212;31521;-71
2021/08/19 04:19:00;;;;;;;6.40;5.45;;;14.30;1.40;;;15.75;100.00;95435.50;647498;216;31580;-70
2021/08/19 04:21:41;;;;;;;6.82;5.30;;;14.30;1.40;;;15.72;100.00;95437.19;646523;216;31758;-71
2021/08/19 04:24:23;;;;;;;5.62;5.12;;;14.30;1.40;;;15.74;100.00;95440.86;646270;212;31643;-70
2021/08/19 04:27:05;;;;;;;6.57;5.53;;;14.30;1.40;;;15.65;100.00;95441.36;646949;216;31544;-71
2021/08/19 04:29:47;;;;;;;8.27;5.75;;;14.30;1.40;;;15.69;100.00;95443.92;645670;212;31772;-70
2021/08/19 04:32:28;;;;;;;6.82;5.40;;;14.30;1.40;;;15.80;100.00;95446.84;646240;212;32230;-71
2021/08/19 04:35:51;;;;;;;6.07;5.47;;;14.30;1.40;;;15.92;100.00;95443.55;646568;216;31595;-71
2021/08/19 04:38:33;;;;;;;7.20;6.20;;;14.30;1.40;;;15.99;100.00;95443.99;646308;212;31815;-71
2021/08/19 04:41:14;;;;;;;5.95;5.35;;;14.30;1.40;;;15.89;100.00;95441.91;638974;212;31709;-72
2021/08/19 04:43:56;;;;;;;7.10;5.12;;;14.40;1.40;;;15.73;100.00;95440.27;647410;216;31547;-72
2021/08/19 04:46:41;;;;;;;6.45;5.10;;;14.30;1.40;;;15.74;100.00;95438.97;645879;212;31573;-70
2021/08/19 04:49:22;;;;;;;8.00;5.80;;;14.40;1.40;;;15.81;100.00;95444.25;647402;216;31578;-71
2021/08/19 04:52:04;;;;;;;7.32;5.72;;;14.40;1.40;;;15.83;100.00;95435.13;646366;212;31578;-70
2021/08/19 04:54:49;;;;;;;7.03;5.07;;;14.40;1.40;;;15.90;100.00;95437.78;645577;216;31584;-70
2021/08/19 04:57:31;;;;;;;6.85;5.80;;;14.40;1.40;;;15.82;100.00;95432.36;646578;212;31546;-71
2021/08/19 05:00:15;;;;;;;8.27;6.00;;;14.40;1.40;;;15.67;100.00;95440.00;645270;212;31822;-71
2021/08/19 05:02:57;;;;;;;6.40;5.62;;;14.40;1.40;;;16.02;100.00;95437.45;647267;212;31570;-71
2021/08/19 05:05:39;;;;;;;6.68;5.37;;;14.40;1.40;;;15.86;100.00;95439.22;646070;216;31559;-72
2021/08/19 05:08:23;;;;;;;7.53;6.03;;;14.50;1.40;;;15.92;100.00;95441.25;646901;216;31631;-71
2021/08/19 05:11:05;;;;;;;6.55;5.57;;;14.50;1.40;;;15.91;100.00;95442.47;645400;216;32060;-71
2021/08/19 05:13:47;;;;;;;7.55;5.90;;;14.50;1.40;;;15.89;100.00;95442.49;646696;216;31558;-71
2021/08/19 05:16:28;;;;;;;7.62;5.90;;;14.50;1.40;;;15.92;100.00;95441.41;645402;212;31538;-71
2021/08/19 05:19:10;;;;;;;6.87;5.40;;;14.50;1.40;;;15.90;100.00;95438.36;646783;212;31584;-70
2021/08/19 05:21:52;;;;;;;7.68;6.40;;;14.50;1.40;;;15.99;100.00;95439.73;645959;212;31565;-70
2021/08/19 05:24:34;;;;;;;7.70;5.70;;;14.60;1.40;;;16.18;100.00;95440.76;647188;216;31522;-71
2021/08/19 05:27:15;;;;;;;7.00;6.00;;;14.70;1.40;;;16.18;100.00;95443.30;618559;222;31952;-70
2021/08/19 05:29:57;;;;;;;10.57;6.62;;;14.80;1.40;;;16.55;100.00;95439.47;647181;212;31545;-70
2021/08/19 05:32:39;;;;;;;8.48;5.97;;;14.90;1.40;;;16.36;100.00;95440.23;646187;212;31548;-70
2021/08/19 05:35:50;;;;;;;7.75;5.65;;;14.80;1.40;;;16.29;100.00;95439.44;647104;216;31522;-70
2021/08/19 05:38:32;;;;;;;8.33;6.23;;;14.80;1.40;;;16.32;100.00;95441.80;647069;212;32600;-71
2021/08/19 05:41:14;;;;;;;7.57;5.85;;;14.90;1.40;;;16.53;100.00;95444.31;646288;216;31542;-71
2021/08/19 05:43:56;;;;;;;7.12;5.78;;;15.00;1.40;;;16.43;100.00;95441.35;646280;212;31554;-71
2021/08/19 05:46:40;;;;;;;8.32;6.47;;;15.00;1.40;;;16.59;100.00;95442.30;619446;226;32026;-70
2021/08/19 05:49:22;;;;;;;7.65;5.70;;;15.10;1.40;;;16.77;100.00;95444.76;646661;216;31573;-70
2021/08/19 05:52:04;;;;;;;7.93;5.57;;;15.20;1.40;;;16.78;100.00;95445.78;646227;212;31559;-70
2021/08/19 05:54:46;;;;;;;9.13;6.10;;;15.30;1.40;;;16.83;100.00;95449.65;647697;212;31546;-70
2021/08/19 05:57:27;;;;;;;9.10;6.20;;;15.30;1.40;;;16.82;100.00;95451.90;646784;216;31550;-70
2021/08/19 06:00:10;;;;;;;7.53;6.12;;;15.40;1.40;;;16.73;100.00;95452.17;646023;216;31555;-70
2021/08/19 06:02:55;;;;;;;8.18;6.40;;;15.40;1.40;;;16.75;100.00;95456.25;644522;216;31902;-69
2021/08/19 06:05:36;;;;;;;8.20;6.10;;;15.40;1.40;;;16.76;100.00;95459.17;646477;216;31555;-70
2021/08/19 06:08:18;;;;;;;7.07;5.53;;;15.50;1.40;;;16.78;100.00;95456.14;645029;212;31554;-69
2021/08/19 06:11:00;;;;;;;8.32;5.20;;;15.50;1.40;;;16.79;100.00;95467.20;646691;212;31709;-70
2021/08/19 06:13:41;;;;;;;6.65;5.45;;;15.50;1.40;;;16.84;100.00;95462.31;645184;212;31573;-70
2021/08/19 06:16:23;;;;;;;5.82;5.12;;;15.60;1.40;;;16.84;100.00;95458.08;646058;212;31575;-70
2021/08/19 06:19:08;;;;;;;5.28;4.60;;;15.60;1.40;;;17.09;100.00;95462.76;645222;216;31543;-70
2021/08/19 06:21:55;;;;;;;7.22;5.15;;;15.80;1.40;;;17.00;100.00;95472.60;646205;216;31680;-70
2021/08/19 06:24:39;;;;;;;5.32;4.60;;;15.80;1.40;;;17.06;100.00;95468.33;647920;212;32173;-71
2021/08/19 06:27:21;;;;;;;5.68;5.00;;;15.80;1.40;;;17.05;100.00;95475.31;647967;216;31692;-70
2021/08/19 06:30:02;;;;;;;7.15;4.62;;;15.80;1.40;;;16.88;100.00;95479.64;645866;216;32018;-70
2021/08/19 06:32:50;;;;;;;5.60;5.00;;;15.80;1.40;;;16.99;100.00;95475.80;644216;213;31580;-73
2021/08/19 06:35:57;;;;;;;5.57;4.62;;;15.80;1.40;;;16.93;100.00;95478.06;647015;216;31611;-71
2021/08/19 06:38:45;;;;;;;6.68;5.50;;;15.80;1.40;;;17.05;100.00;95476.30;644923;216;32668;-71
2021/08/19 06:41:28;;;;;;;6.15;5.20;;;15.80;1.40;;;16.92;100.00;95478.88;636651;216;32607;-70
2021/08/19 06:44:10;;;;;;;8.57;4.78;;;15.90;1.40;;;17.02;100.00;95474.02;645820;215;32166;-71
2021/08/19 06:46:54;;;;;;;5.20;4.70;;;16.00;1.40;;;17.16;100.00;95470.11;620339;222;31960;-71
2021/08/19 06:49:43;;;;;;;6.60;5.65;;;16.00;1.40;;;17.14;100.00;95472.89;645280;216;31967;-71
2021/08/19 06:52:29;;;;;;;5.35;4.85;;;16.00;1.40;;;17.47;100.00;95472.01;645113;216;31531;-71
2021/08/19 06:55:17;;;;;;;5.30;4.80;;;16.20;1.40;;;17.38;100.00;95472.28;646166;212;31575;-70
2021/08/19 06:57:58;;;;;;;5.60;4.70;;;16.20;1.40;;;17.27;100.00;95473.72;647390;212;31561;-70
2021/08/19 07:00:40;;;;;;;5.53;4.75;;;16.10;1.40;;;17.30;100.00;95470.69;617512;225;32152;-70
2021/08/19 07:03:24;;;;;;;5.20;4.70;;;16.10;1.40;;;17.42;100.00;95469.02;645795;212;31580;-71
2021/08/19 07:06:05;;;;;;;6.30;4.50;;;16.20;1.40;;;17.42;100.00;95471.37;645543;212;32576;-71
2021/08/19 07:08:49;;;;;;;5.03;4.40;;;16.20;1.40;;;17.45;100.00;95470.39;645208;216;31567;-70
2021/08/19 07:11:37;;;;;;;5.20;4.70;;;16.20;1.40;;;17.57;100.00;95468.22;647354;216;32202;-72
2021/08/19 07:14:18;;;;;;;6.68;4.70;;;16.30;1.40;;;17.52;100.00;95471.48;646428;216;33550;-71
2021/08/19 07:17:06;;;;;;;5.22;4.60;;;16.30;1.40;;;17.51;100.00;95473.70;646561;216;31565;-71
2021/08/19 07:19:48;;;;;;;4.90;4.20;;;16.40;1.40;;;17.52;100.00;95469.48;646463;212;31638;-70
2021/08/19 07:22:33;;;;;;;4.90;3.80;;;16.30;1.40;;;17.52;100.00;95475.15;646475;216;31901;-71
2021/08/19 07:25:14;;;;;;;4.70;4.30;;;16.40;1.40;;;17.62;100.00;95471.78;646919;212;31694;-71
2021/08/19 07:27:56;;;;;;;4.35;3.95;;;16.50;1.40;;;17.74;100.00;95469.30;646375;213;32164;-70
2021/08/19 07:30:38;;;;;;;4.40;3.50;;;16.60;1.40;;;17.92;100.00;95469.32;645856;212;31717;-70
2021/08/19 07:35:56;;;;;;;4.87;4.40;;;16.60;1.40;;;17.93;100.00;95467.39;645002;212;31620;-70
2021/08/19 07:38:45;;;;;;;4.15;3.75;;;16.60;1.40;;;17.90;100.00;95464.01;648224;216;31560;-71
2021/08/19 07:41:28;;;;;;;4.30;3.90;;;16.60;1.40;;;17.82;100.00;95469.22;637071;212;32769;-71
2021/08/19 07:44:10;;;;;;;4.15;3.75;;;16.70;1.40;;;18.24;100.00;95467.58;646219;216;31735;-70
2021/08/19 07:46:53;;;;;;;4.00;3.60;;;16.80;1.40;;;17.88;100.00;95463.38;618372;226;31998;-70
2021/08/19 07:49:35;;;;;;;3.97;3.58;;;16.70;1.40;;;17.90;100.00;95464.95;645076;212;31602;-72
2021/08/19 07:52:17;;;;;;;4.30;3.60;;;16.80;1.40;;;18.12;100.00;95467.19;646757;216;32110;-71
2021/08/19 07:55:05;;;;;;;4.30;3.50;;;16.90;1.40;;;18.13;100.00;95475.63;646670;216;31621;-71
2021/08/19 07:57:47;;;;;;;4.10;3.60;;;16.90;1.40;;;18.28;99.26;95472.45;645641;216;31580;-70
2021/08/19 08:00:29;;;;;;;3.90;3.50;;;17.10;1.40;;;18.51;97.32;95473.13;646103;216;31623;-70
2021/08/19 08:03:13;;;;;;;3.92;3.53;;;17.20;1.40;;;18.37;98.46;95471.64;646152;212;31629;-70
2021/08/19 08:06:00;;;;;;;3.55;3.22;;;17.20;1.40;;;18.83;97.17;95469.49;645677;216;31633;-71
2021/08/19 08:08:42;;;;;;;3.40;3.10;;;17.70;1.40;;;19.55;92.44;95475.27;646866;212;31738;-71
2021/08/19 08:11:24;;;;;;;5.40;3.40;;;18.20;1.40;;;19.42;91.50;95479.20;647161;213;31765;-71
2021/08/19 08:14:05;;;;;;;3.45;3.15;;;17.90;1.40;;;19.97;89.18;95479.52;646479;212;31565;-70
2021/08/19 08:16:47;;;;;;;4.40;3.20;;;18.40;1.40;;;20.18;85.02;95478.08;619142;222;32507;-70
2021/08/19 08:19:35;;;;;;;3.10;2.75;;;18.30;1.40;;;20.15;87.34;95473.80;645044;212;31584;-70
2021/08/19 08:22:22;;;;;;;4.00;2.80;;;18.60;1.40;;;20.95;82.90;95478.30;647367;216;31589;-71
2021/08/19 08:25:07;;;;;;;4.20;3.30;;;19.00;1.40;;;20.61;84.00;95479.44;620658;226;31883;-70
2021/08/19 08:27:53;;;;;;;3.00;2.70;;;18.90;1.40;;;20.65;85.00;95480.39;646809;212;31686;-70
2021/08/19 08:30:34;;;;;;;3.37;2.50;;;18.90;1.40;;;20.66;82.65;95483.77;646855;216;42207;-71
2021/08/19 08:35:51;;;;;;;1.50;1.37;;;19.10;1.40;;;21.26;77.79;95493.38;646198;216;31590;-71
2021/08/19 08:38:36;;;;;;;1.90;1.67;;;19.20;1.40;;;21.01;75.27;95495.78;646443;213;31701;-71
2021/08/19 08:41:19;;;;;;;1.70;1.47;;;18.90;1.40;;;21.34;74.70;95494.47;618731;222;33966;-71
2021/08/19 08:44:00;;;;;;;2.00;1.20;;;19.20;1.40;;;21.32;74.32;95496.72;646566;216;42182;-70
2021/08/19 08:46:42;;;;;;;1.55;1.45;;;19.50;1.40;;;21.49;76.23;95494.34;646934;216;31717;-71
2021/08/19 08:49:24;;;;;;;1.60;1.20;;;19.50;1.40;;;21.69;70.22;95490.16;645548;212;31645;-71
2021/08/19 08:52:06;;;;;;;1.97;1.10;;;19.60;1.40;;;22.14;70.40;95496.50;646301;216;31574;-71
2021/08/19 08:54:50;;;;;;;1.75;1.30;;;19.70;1.40;;;22.37;69.20;95496.35;646291;212;31653;-71
2021/08/19 08:57:29;;;;;;;1.30;1.17;;;20.00;1.40;;;22.07;67.06;95499.33;646477;212;31849;-72
2021/08/19 09:00:11;;;;;;;1.30;1.20;;;19.90;1.40;;;22.59;66.31;95496.61;647404;212;31645;-71
2021/08/19 09:02:53;;;;;;;1.17;1.05;;;20.20;1.40;;;22.50;64.05;95500.91;646171;212;31545;-72
2021/08/19 09:05:37;;;;;;;1.50;1.40;;;19.90;1.40;;;22.63;66.03;95493.28;645480;212;31608;-74
2021/08/19 09:08:20;;;;;;;2.30;1.30;;;20.20;1.40;;;22.79;63.89;95495.19;645270;212;31779;-71
2021/08/19 09:11:01;;;;;;;1.30;1.00;;;20.40;1.40;;;22.91;66.18;95496.22;619222;222;32602;-71
2021/08/19 09:13:43;;;;;;;2.42;1.50;;;20.60;1.40;;;23.02;64.58;95494.05;646717;216;32320;-71
2021/08/19 09:16:25;;;;;;;2.20;1.30;;;20.50;1.40;;;21.93;65.97;95500.84;618403;222;32016;-71
2021/08/19 09:19:09;;;;;;;1.30;1.20;;;19.90;1.40;;;22.53;66.58;95502.09;646911;216;31557;-71
2021/08/19 09:21:51;;;;;;;1.90;1.33;;;20.00;1.40;;;21.81;65.96;95501.73;645387;212;32783;-71
2021/08/19 09:24:33;;;;;;;1.80;1.37;;;19.50;1.40;;;21.24;67.45;95502.58;647082;216;38374;-72
2021/08/19 09:27:15;;;;;;;1.30;1.20;;;19.30;1.40;;;21.11;68.74;95501.77;646113;216;31530;-71
2021/08/19 09:29:56;;;;;;;2.20;1.50;;;19.10;1.40;;;21.32;68.65;95500.36;645435;212;31537;-70
2021/08/19 09:32:38;;;;;;;1.50;1.40;;;19.10;1.40;;;21.32;68.91;95504.49;646526;216;31537;-70
2021/08/19 09:35:51;;;;;;;1.60;1.43;;;19.40;1.40;;;21.87;68.05;95499.50;645966;212;31580;-71
2021/08/19 09:38:39;;;;;;;2.00;1.52;;;19.80;1.40;;;22.17;67.22;95500.80;644579;212;31562;-71
2021/08/19 09:41:26;;;;;;;2.10;1.70;;;20.00;1.40;;;22.20;65.55;95497.83;636789;216;31736;-71
2021/08/19 09:44:14;;;;;;;1.60;1.50;;;20.00;1.40;;;21.91;65.58;95499.37;645639;212;31512;-71
2021/08/19 09:46:58;;;;;;;1.83;1.62;;;19.90;1.40;;;22.20;63.63;95495.92;645365;212;32125;-72
2021/08/19 09:49:40;;;;;;;1.77;1.27;;;19.80;1.40;;;22.25;65.75;95500.33;647763;216;32151;-71
2021/08/19 09:52:29;;;;;;;2.60;1.60;;;19.80;1.40;;;21.04;67.90;95501.99;645687;212;42164;-71
2021/08/19 09:55:30;;;;;;;3.45;1.50;;;19.30;1.40;;;22.71;63.49;95494.98;646321;212;31670;-71
2021/08/19 09:58:12;;;;;;;1.67;1.20;;;20.60;1.40;;;23.10;60.48;95494.91;646447;212;31721;-70
2021/08/19 10:00:53;;;;;;;1.40;1.30;;;21.50;1.40;;;23.80;56.16;95497.16;645929;212;31696;-71
2021/08/19 10:03:35;;;;;;;1.60;1.50;;;22.20;1.40;;;24.75;56.15;95495.52;647157;216;31677;-71
2021/08/19 10:06:22;;;;;;;1.53;1.10;;;22.40;1.40;;;25.96;54.06;95490.06;602144;233;32597;-71
2021/08/19 10:09:03;;;;;;;1.83;1.42;;;23.30;1.40;;;27.37;50.91;95483.95;645339;213;31563;-72
2021/08/19 10:11:45;;;;;;;1.40;1.20;;;24.60;1.40;;;26.20;50.33;95494.37;647075;216;31807;-71
2021/08/19 10:14:28;;;;;;;1.90;1.40;;;25.30;1.40;;;27.14;48.01;95491.68;615727;224;32227;-71
2021/08/19 10:17:09;;;;;;;2.10;1.30;;;25.00;1.40;;;26.31;48.19;95493.60;646893;216;31606;-71
2021/08/19 10:19:51;;;;;;;1.80;1.70;;;25.20;1.40;;;27.31;48.04;95483.13;646347;212;31506;-71
2021/08/19 10:22:36;;;;;;;1.60;1.50;;;25.00;1.40;;;27.12;48.92;95488.23;645902;212;42154;-72
2021/08/19 10:25:17;;;;;;;1.40;1.30;;;23.60;1.40;;;26.61;47.86;95482.64;643923;216;42831;-71
2021/08/19 10:28:14;;;;;;;1.90;1.30;;;22.70;1.40;;;25.98;50.31;95480.56;647763;216;42686;-72
2021/08/19 10:30:58;;;;;;;1.10;1.00;;;22.70;1.40;;;24.57;50.69;95476.38;645751;213;31621;-71
2021/08/19 10:35:58;;;;;;;1.25;1.00;;;23.10;1.40;;;25.85;49.66;95469.23;646692;216;31538;-72
2021/08/19 10:38:46;;;;;;;1.80;1.00;;;23.60;1.40;;;26.61;47.18;95465.78;645301;216;31507;-71
2021/08/19 10:44:12;;;;;;;1.10;1.00;;;28.70;1.40;;;31.90;40.58;95452.56;646484;216;32493;-71
2021/08/19 10:46:55;;;;;;;1.37;1.27;;;29.20;1.40;;;33.79;37.60;95451.45;645544;212;31664;-71
2021/08/19 10:49:37;;;;;;;1.50;1.17;;;28.70;1.40;;;31.43;39.79;95455.78;645664;216;42555;-71
2021/08/19 10:52:28;;;;;;;1.50;1.40;;;25.90;1.40;;;29.99;42.10;95453.97;646258;216;41785;-72
2021/08/19 10:55:09;;;;;;;1.40;1.30;;;24.40;1.40;;;28.06;45.90;95457.83;644042;212;31679;-71
2021/08/19 10:57:51;;;;;;;1.33;1.00;;;23.20;1.40;;;26.09;47.91;95456.16;647407;212;31922;-71
2021/08/19 11:01:02;;;;;;;1.90;1.33;;;23.00;1.40;;;28.62;44.94;95449.30;646576;216;31733;-71
2021/08/19 11:03:45;;;;;;;1.60;1.20;;;26.00;1.40;;;27.98;44.88;95456.34;619814;226;31895;-70
2021/08/19 11:09:01;;;;;;;1.33;1.00;;;23.20;1.40;;;27.10;46.06;95447.08;618974;222;42647;-71
2021/08/19 11:11:43;;;;;;;1.80;1.60;;;22.70;1.40;;;27.06;46.39;95446.77;645365;216;31550;-71
2021/08/19 11:14:25;;;;;;;2.45;1.60;;;22.60;1.40;;;27.58;45.99;95441.09;646568;216;31530;-71
2021/08/19 11:17:06;;;;;;;2.00;1.80;;;23.00;1.40;;;27.18;47.19;95440.52;646470;212;31526;-71
2021/08/19 11:19:48;;;;;;;1.50;1.40;;;22.90;1.40;;;28.27;45.11;95442.39;620310;226;31892;-71
2021/08/19 11:22:30;;;;;;;1.48;1.37;;;25.60;1.40;;;29.08;44.65;95437.39;647033;216;31550;-70
2021/08/19 11:25:12;;;;;;;2.00;1.30;;;25.60;1.40;;;29.38;42.44;95431.48;645621;216;31682;-70
2021/08/19 11:27:53;;;;;;;1.30;1.20;;;24.50;1.40;;;27.15;45.99;95442.73;645158;212;31523;-71
2021/08/19 11:30:34;;;;;;;1.17;0.95;;;22.90;1.40;;;25.88;48.82;95448.64;646636;216;42145;-71
2021/08/19 11:38:35;;;;;;;1.45;1.30;;;25.40;1.40;;;31.38;38.74;95438.17;647253;216;31665;-71
2021/08/19 11:41:17;;;;;;;1.85;1.42;;;28.00;1.40;;;32.83;36.65;95430.33;637676;216;31697;-71
2021/08/19 11:44:03;;;;;;;1.35;1.25;;;28.10;1.40;;;33.89;35.27;95427.20;645288;216;31523;-73
2021/08/19 11:46:44;;;;;;;1.58;1.48;;;28.80;1.40;;;31.13;37.54;95430.88;618961;222;31901;-71
2021/08/19 11:49:26;;;;;;;1.80;1.50;;;27.00;1.40;;;31.64;37.94;95425.86;646816;216;42546;-72
2021/08/19 11:52:08;;;;;;;2.20;1.50;;;26.90;1.40;;;28.14;42.75;95428.84;647325;212;32017;-72
2021/08/19 11:54:50;;;;;;;1.62;1.48;;;23.20;1.40;;;28.51;46.29;95425.82;646502;212;31806;-72
2021/08/19 11:57:31;;;;;;;1.80;1.60;;;25.20;1.40;;;31.34;41.94;95431.31;646093;216;31548;-71
2021/08/19 12:00:18;;;;;;;1.40;1.30;;;25.10;1.40;;;30.63;40.28;95431.57;646819;212;31545;-72
2021/08/19 12:03:02;;;;;;;1.60;1.50;;;25.10;1.40;;;32.00;38.75;95420.27;647238;212;31550;-71
2021/08/19 12:05:43;;;;;;;1.70;1.60;;;26.50;1.40;;;31.06;39.51;95427.97;645304;216;31526;-70
2021/08/19 12:08:26;;;;;;;1.70;1.60;;;25.30;1.40;;;29.13;41.78;95425.28;646694;212;31540;-72
2021/08/19 12:11:08;;;;;;;1.85;1.48;;;24.10;1.40;;;27.61;44.22;95430.55;646994;212;31622;-71